Time;durP1;ratioP1;P1;durP2;ratioP2;P2;SDS_P1;SDS_P2;PMS_P1;PMS_P2;Temp;Humidity;BMP_temperature;BMP_pressure;BME280_temperature;BME280_humidity;BME280_pressure;Samples;Min_cycle;Max_cycle;Signal;HPM_P1;HPM_P2
2021/10/15 00:00:05;;;;;;;29.52;11.55;;;;;;;10.88;78.84;101665.66;5012724;28;20033;-63
2021/10/15 00:02:30;;;;;;;27.73;11.48;;;;;;;10.91;79.22;101668.34;5013041;28;20034;-64
2021/10/15 00:04:56;;;;;;;27.17;11.38;;;;;;;10.82;79.65;101670.84;5012728;28;20350;-63
2021/10/15 00:07:21;;;;;;;27.40;11.18;;;;;;;10.79;80.48;101661.09;5012672;28;20037;-63
2021/10/15 00:09:46;;;;;;;27.92;11.27;;;;;;;10.86;79.66;101662.06;5013281;28;20034;-63
2021/10/15 00:12:13;;;;;;;27.63;10.90;;;;;;;10.75;80.69;101661.91;5012789;28;20057;-65
2021/10/15 00:14:57;;;;;;;28.73;12.30;;;;;;;10.74;81.31;101657.47;5013301;28;20026;-64
2021/10/15 00:17:22;;;;;;;27.67;11.50;;;;;;;10.69;82.10;101645.03;5018622;28;20512;-63
2021/10/15 00:19:48;;;;;;;31.40;12.20;;;;;;;10.72;82.58;101642.47;5024677;28;20026;-64
2021/10/15 00:22:13;;;;;;;28.55;11.90;;;;;;;10.68;82.90;101649.44;5020983;28;20037;-63
2021/10/15 00:24:38;;;;;;;28.55;11.43;;;;;;;10.72;82.65;101643.34;5023822;28;20088;-63
2021/10/15 00:27:04;;;;;;;30.48;12.93;;;;;;;10.67;83.46;101630.91;5022206;28;20035;-63
2021/10/15 00:29:29;;;;;;;32.25;12.95;;;;;;;10.60;84.62;101641.38;5012657;28;20366;-64
2021/10/15 00:31:55;;;;;;;30.20;12.68;;;;;;;10.64;83.55;101627.38;5021794;28;20053;-64
2021/10/15 00:34:20;;;;;;;30.20;12.90;;;;;;;10.60;84.78;101627.25;5023916;28;20069;-64
2021/10/15 00:36:45;;;;;;;32.22;13.02;;;;;;;10.56;84.91;101622.81;5020801;28;20033;-64
2021/10/15 00:39:11;;;;;;;29.65;13.70;;;;;;;10.59;84.94;101625.50;5024068;28;20045;-63
2021/10/15 00:41:37;;;;;;;30.75;12.90;;;;;;;10.52;86.04;101623.63;5021708;28;20555;-64
2021/10/15 00:44:07;;;;;;;31.80;13.52;;;;;;;10.46;86.60;101625.28;5012354;28;20036;-67
2021/10/15 00:46:34;;;;;;;31.73;13.77;;;;;;;10.45;86.89;101625.25;5011346;28;20050;-67
2021/10/15 00:49:05;;;;;;;29.88;13.25;;;;;;;10.44;86.74;101605.88;5015550;28;20388;-67
2021/10/15 00:51:32;;;;;;;29.75;13.63;;;;;;;10.41;88.28;101610.19;5016415;28;20436;-68
2021/10/15 00:53:58;;;;;;;32.20;14.00;;;;;;;10.35;88.05;101608.34;5016335;28;20125;-67
2021/10/15 00:56:23;;;;;;;33.67;13.73;;;;;;;10.32;88.90;101605.59;5025004;28;20037;-68
2021/10/15 00:58:49;;;;;;;30.10;13.30;;;;;;;10.31;88.63;101606.50;5027964;28;20029;-67
2021/10/15 01:01:14;;;;;;;31.20;14.00;;;;;;;10.26;90.00;101594.94;5024349;28;20040;-68
2021/10/15 01:03:40;;;;;;;30.33;13.63;;;;;;;10.26;89.27;101600.22;5026832;28;20022;-67
2021/10/15 01:06:05;;;;;;;31.17;13.55;;;;;;;10.26;89.89;101581.72;5025306;28;20025;-67
2021/10/15 01:08:32;;;;;;;31.13;13.60;;;;;;;10.25;89.59;101587.88;5016177;28;20037;-67
2021/10/15 01:10:57;;;;;;;30.30;14.20;;;;;;;10.21;90.63;101576.38;5025433;28;20022;-68
2021/10/15 01:13:23;;;;;;;29.35;13.93;;;;;;;10.21;90.45;101581.66;5027153;28;20029;-67
2021/10/15 01:15:48;;;;;;;29.75;13.02;;;;;;;10.22;90.52;101571.97;5016054;28;20026;-67
2021/10/15 01:18:14;;;;;;;31.65;13.43;;;;;;;10.22;90.53;101570.22;5015670;28;20026;-67
2021/10/15 01:20:42;;;;;;;33.72;14.05;;;;;;;10.18;91.91;101580.69;5026610;28;20396;-68
2021/10/15 01:23:08;;;;;;;34.45;14.07;;;;;;;10.16;92.07;101577.16;5024948;28;20025;-67
2021/10/15 01:25:35;;;;;;;32.45;14.48;;;;;;;10.17;91.67;101585.09;5025717;28;20037;-67
2021/10/15 01:28:00;;;;;;;30.48;14.00;;;;;;;10.18;91.42;101568.38;5025934;28;20104;-68
2021/10/15 01:30:26;;;;;;;32.72;14.55;;;;;;;10.24;90.62;101563.19;5024811;28;20160;-68
2021/10/15 01:32:51;;;;;;;31.23;14.23;;;;;;;10.21;90.80;101557.88;5026742;28;20033;-69
2021/10/15 01:35:17;;;;;;;31.65;14.00;;;;;;;10.18;91.89;101560.47;5015849;28;20030;-68
2021/10/15 01:37:42;;;;;;;32.58;14.02;;;;;;;10.20;91.43;101555.22;5015382;28;20480;-68
2021/10/15 01:40:09;;;;;;;29.98;13.55;;;;;;;10.16;91.75;101550.72;5026019;28;20033;-69
2021/10/15 01:45:18;;;;;;;30.48;13.73;;;;;;;10.12;92.44;101540.09;5020207;28;20041;-68
2021/10/15 01:47:43;;;;;;;31.05;14.30;;;;;;;10.22;91.34;101550.81;5015090;28;20026;-68
2021/10/15 01:50:09;;;;;;;31.73;13.93;;;;;;;10.22;92.04;101553.47;5015174;28;20029;-69
2021/10/15 01:52:34;;;;;;;31.45;14.65;;;;;;;10.23;91.70;101549.97;5025825;28;20377;-68
2021/10/15 01:54:59;;;;;;;31.58;13.63;;;;;;;10.29;91.43;101542.13;5023743;28;20044;-68
2021/10/15 01:57:25;;;;;;;32.22;14.95;;;;;;;10.17;92.72;101541.94;5023957;28;20053;-68
2021/10/15 01:59:50;;;;;;;31.48;13.95;;;;;;;10.16;92.32;101532.22;5025756;28;20164;-68
2021/10/15 02:02:16;;;;;;;33.13;14.45;;;;;;;10.19;92.28;101535.78;5023411;28;20568;-68
2021/10/15 02:04:41;;;;;;;35.25;14.38;;;;;;;10.19;92.45;101530.50;5025974;28;20021;-66
2021/10/15 02:07:06;;;;;;;31.90;14.38;;;;;;;10.16;93.29;101535.75;5024372;28;20022;-67
2021/10/15 02:09:32;;;;;;;31.35;14.23;;;;;;;10.22;92.23;101521.75;5014929;28;20052;-68
2021/10/15 02:11:59;;;;;;;31.20;13.82;;;;;;;10.16;93.59;101525.19;5013909;28;20479;-68
2021/10/15 02:14:24;;;;;;;32.20;14.70;;;;;;;10.21;93.12;101531.44;5015007;28;20037;-68
2021/10/15 02:16:50;;;;;;;33.17;14.90;;;;;;;10.15;94.35;101522.50;5014669;28;20385;-68
2021/10/15 02:19:15;;;;;;;31.83;14.68;;;;;;;10.18;93.70;101518.19;5014652;28;20029;-68
2021/10/15 02:21:40;;;;;;;34.95;15.45;;;;;;;10.11;95.24;101519.81;5014466;28;20030;-68
2021/10/15 02:24:06;;;;;;;34.53;15.15;;;;;;;10.14;94.31;101526.03;5025083;28;20374;-69
2021/10/15 02:26:31;;;;;;;33.97;15.70;;;;;;;10.13;94.62;101514.56;5024912;28;20040;-67
2021/10/15 02:28:56;;;;;;;32.53;15.15;;;;;;;10.17;94.72;101512.88;5014477;28;20029;-68
2021/10/15 02:31:21;;;;;;;34.13;15.18;;;;;;;10.15;95.39;101517.22;5022715;28;20381;-62
2021/10/15 02:33:47;;;;;;;32.28;15.02;;;;;;;10.19;95.16;101511.13;5026149;28;20104;-63
2021/10/15 02:36:14;;;;;;;31.45;15.20;;;;;;;10.15;95.88;101510.22;5023078;28;20025;-62
2021/10/15 02:38:39;;;;;;;34.13;15.35;;;;;;;10.13;96.83;101504.00;5025249;28;20022;-63
2021/10/15 02:41:04;;;;;;;37.53;15.73;;;;;;;10.17;96.48;101497.91;5024133;28;20025;-63
2021/10/15 02:43:29;;;;;;;35.92;15.02;;;;;;;10.16;96.96;101496.13;5023833;28;20156;-62
2021/10/15 02:45:55;;;;;;;33.60;15.40;;;;;;;10.19;97.35;101493.53;5025266;28;20104;-62
2021/10/15 02:48:20;;;;;;;33.72;15.05;;;;;;;10.18;97.65;101494.41;5022373;28;20030;-63
2021/10/15 02:50:45;;;;;;;32.60;15.23;;;;;;;10.19;97.91;101484.72;5022376;28;20469;-63
2021/10/15 02:53:11;;;;;;;33.80;15.73;;;;;;;10.16;98.05;101492.59;5024972;28;20036;-62
2021/10/15 02:55:36;;;;;;;33.53;14.93;;;;;;;10.18;98.44;101490.84;5023264;28;20059;-62
2021/10/15 02:58:01;;;;;;;33.03;14.93;;;;;;;10.20;97.79;101483.88;5023736;28;20038;-64
2021/10/15 03:00:27;;;;;;;34.00;15.60;;;;;;;10.19;98.51;101482.06;5024986;28;20468;-63
2021/10/15 03:02:55;;;;;;;32.67;16.08;;;;;;;10.22;98.09;101487.41;5022177;28;20068;-63
2021/10/15 03:05:20;;;;;;;31.02;14.75;;;;;;;10.22;98.16;101480.38;5025252;28;20472;-64
2021/10/15 03:07:45;;;;;;;32.15;14.63;;;;;;;10.21;98.05;101475.09;5018338;28;20040;-64
2021/10/15 03:10:11;;;;;;;33.03;15.68;;;;;;;10.18;98.87;101469.72;5024734;28;20028;-63
2021/10/15 03:12:37;;;;;;;32.97;15.77;;;;;;;10.14;99.06;101468.78;5023195;28;20021;-63
2021/10/15 03:15:04;;;;;;;35.88;15.82;;;;;;;10.16;99.78;101471.47;5014087;28;20100;-63
2021/10/15 03:17:29;;;;;;;35.45;16.70;;;;;;;10.15;99.52;101465.31;5022775;28;20083;-64
2021/10/15 03:19:54;;;;;;;50.95;16.48;;;;;;;10.21;99.32;101468.03;5024628;28;20068;-63
2021/10/15 03:22:20;;;;;;;31.90;15.68;;;;;;;10.19;99.04;101458.28;5021695;28;20076;-63
2021/10/15 03:24:45;;;;;;;32.53;15.20;;;;;;;10.18;99.45;101460.06;5024875;28;20105;-64
2021/10/15 03:27:10;;;;;;;35.05;16.63;;;;;;;10.17;100.00;101454.75;5022641;28;20065;-63
2021/10/15 03:29:36;;;;;;;34.58;17.08;;;;;;;10.15;99.84;101467.94;5023606;28;20439;-62
2021/10/15 03:32:02;;;;;;;34.28;17.10;;;;;;;10.16;100.00;101460.91;5023602;28;20459;-67
2021/10/15 03:34:28;;;;;;;33.60;15.90;;;;;;;10.20;99.25;101468.00;5022651;28;20030;-68
2021/10/15 03:36:53;;;;;;;34.92;16.38;;;;;;;10.17;100.00;101462.69;5024522;28;20109;-68
2021/10/15 03:39:37;;;;;;;36.63;16.33;;;;;;;10.23;100.00;101454.84;5021468;28;20022;-68
2021/10/15 03:42:02;;;;;;;34.50;16.50;;;;;;;10.21;100.00;101448.66;5021261;28;20076;-68
2021/10/15 03:44:28;;;;;;;37.28;16.90;;;;;;;10.24;100.00;101448.72;5024033;28;20492;-69
2021/10/15 03:46:53;;;;;;;36.35;16.85;;;;;;;10.26;100.00;101455.75;5021582;28;20388;-68
2021/10/15 03:49:19;;;;;;;34.67;16.95;;;;;;;10.21;100.00;101444.25;5024798;28;20076;-69
2021/10/15 03:51:44;;;;;;;38.92;17.20;;;;;;;10.27;100.00;101452.25;5021572;28;20026;-68
2021/10/15 03:54:09;;;;;;;36.65;16.92;;;;;;;10.24;100.00;101440.78;5012794;28;20038;-68
2021/10/15 03:56:35;;;;;;;33.72;16.92;;;;;;;10.25;100.00;101443.44;5023154;28;20018;-68
2021/10/15 03:59:00;;;;;;;35.05;16.42;;;;;;;10.29;100.00;101439.97;5023406;28;20453;-68
2021/10/15 04:01:25;;;;;;;34.03;16.33;;;;;;;10.25;100.00;101437.25;5021541;28;20034;-67
2021/10/15 04:03:51;;;;;;;34.95;17.73;;;;;;;10.28;100.00;101427.63;5024615;28;20072;-68
2021/10/15 04:06:16;;;;;;;35.17;17.25;;;;;;;10.26;100.00;101436.38;5021404;28;20033;-68
2021/10/15 04:08:41;;;;;;;36.53;17.10;;;;;;;10.22;100.00;101429.28;5013158;28;20026;-67
2021/10/15 04:11:07;;;;;;;37.08;17.70;;;;;;;10.20;100.00;101425.75;5013235;28;20021;-68
2021/10/15 04:13:32;;;;;;;35.65;17.95;;;;;;;10.23;100.00;101437.22;5012758;28;20022;-68
2021/10/15 04:16:01;;;;;;;37.05;17.77;;;;;;;10.27;100.00;101422.31;5012764;28;20026;-68
2021/10/15 04:18:26;;;;;;;34.67;17.65;;;;;;;10.25;100.00;101434.59;5021954;28;20425;-68
2021/10/15 04:20:52;;;;;;;38.97;18.85;;;;;;;10.24;100.00;101424.91;5024449;28;20032;-63
2021/10/15 04:23:18;;;;;;;36.50;17.27;;;;;;;10.29;100.00;101410.00;5023096;28;20024;-63
2021/10/15 04:25:44;;;;;;;37.20;18.35;;;;;;;10.39;100.00;101406.66;5028336;28;20099;-64
2021/10/15 04:28:09;;;;;;;36.97;18.77;;;;;;;10.39;100.00;101406.66;5026072;28;20076;-63
2021/10/15 04:30:34;;;;;;;35.92;18.33;;;;;;;10.40;100.00;101405.81;5026580;28;20529;-63
2021/10/15 04:32:59;;;;;;;37.60;17.98;;;;;;;10.43;100.00;101387.34;5027349;28;20052;-63
2021/10/15 04:35:25;;;;;;;36.42;18.23;;;;;;;10.50;100.00;101408.56;5016435;28;20034;-63
2021/10/15 04:37:50;;;;;;;37.30;18.20;;;;;;;10.51;100.00;101413.88;5024617;28;20389;-63
2021/10/15 04:40:16;;;;;;;35.20;17.75;;;;;;;10.51;100.00;101405.06;5028349;28;20231;-63
2021/10/15 04:42:41;;;;;;;34.85;17.30;;;;;;;10.52;100.00;101398.91;5025710;28;20033;-63
2021/10/15 04:45:07;;;;;;;34.85;16.63;;;;;;;10.52;100.00;101393.63;5026649;28;20026;-63
2021/10/15 04:47:33;;;;;;;36.20;17.73;;;;;;;10.48;100.00;101391.81;5026489;28;20492;-62
2021/10/15 04:49:58;;;;;;;36.60;18.23;;;;;;;10.46;100.00;101391.78;5016295;28;20022;-63
2021/10/15 04:52:23;;;;;;;34.00;17.65;;;;;;;10.52;100.00;101399.78;5016403;28;20026;-64
2021/10/15 04:54:49;;;;;;;35.78;18.15;;;;;;;10.48;100.00;101405.03;5015928;28;20401;-64
2021/10/15 04:57:14;;;;;;;34.53;17.67;;;;;;;10.51;100.00;101402.41;5027472;28;20105;-63
2021/10/15 04:59:39;;;;;;;37.75;17.92;;;;;;;10.46;100.00;101402.38;5025497;28;20117;-63
2021/10/15 05:02:05;;;;;;;37.15;18.23;;;;;;;10.44;100.00;101402.34;5026143;28;20033;-65
2021/10/15 05:04:30;;;;;;;37.60;18.02;;;;;;;10.42;100.00;101404.06;5026452;28;20030;-64
2021/10/15 05:06:57;;;;;;;34.47;17.10;;;;;;;10.41;100.00;101394.38;5025234;28;20018;-67
2021/10/15 05:11:51;;;;;;;39.17;18.85;;;;;;;10.43;100.00;101405.84;5016257;28;20042;-67
2021/10/15 05:14:17;;;;;;;37.03;17.92;;;;;;;10.48;100.00;101405.03;5016313;28;20029;-67
2021/10/15 05:16:42;;;;;;;39.42;18.95;;;;;;;10.48;100.00;101397.09;5015998;28;20479;-67
2021/10/15 05:19:07;;;;;;;36.05;19.08;;;;;;;10.50;100.00;101395.34;5015623;28;20025;-67
2021/10/15 05:21:33;;;;;;;36.45;18.80;;;;;;;10.51;100.00;101391.84;5025400;28;20033;-68
2021/10/15 05:23:58;;;;;;;37.42;18.33;;;;;;;10.56;100.00;101392.81;5026284;28;20464;-65
2021/10/15 05:26:23;;;;;;;34.35;18.02;;;;;;;10.58;100.00;101391.94;5024221;28;20042;-66
2021/10/15 05:28:49;;;;;;;40.10;19.60;;;;;;;10.51;100.00;101398.00;5027427;28;20079;-67
2021/10/15 05:31:14;;;;;;;37.10;18.67;;;;;;;10.53;100.00;101393.66;5024371;28;20026;-64
2021/10/15 05:33:39;;;;;;;37.40;18.92;;;;;;;10.54;100.00;101394.53;5025417;28;20018;-65
2021/10/15 05:36:05;;;;;;;38.95;19.40;;;;;;;10.52;100.00;101396.28;5024764;28;20108;-67
2021/10/15 05:38:30;;;;;;;38.72;19.08;;;;;;;10.55;100.00;101396.31;5024885;28;20104;-68
2021/10/15 05:40:55;;;;;;;39.97;19.92;;;;;;;10.55;100.00;101398.94;5023719;28;20018;-65
2021/10/15 05:43:21;;;;;;;40.13;19.13;;;;;;;10.54;100.00;101400.72;5020901;28;20034;-64
2021/10/15 05:45:46;;;;;;;38.60;19.45;;;;;;;10.53;100.00;101393.66;5018920;28;20492;-65
2021/10/15 05:48:11;;;;;;;36.30;19.13;;;;;;;10.55;100.00;101401.59;5022438;28;20030;-64
2021/10/15 05:50:37;;;;;;;36.85;19.27;;;;;;;10.58;100.00;101401.63;5019537;28;20053;-65
2021/10/15 05:53:16;;;;;;;39.00;20.20;;;;;;;10.57;100.00;101407.78;5019174;28;20361;-65
2021/10/15 05:56:01;;;;;;;38.67;19.38;;;;;;;10.60;100.00;101406.09;5017330;28;20510;-65
2021/10/15 06:01:11;;;;;;;35.55;18.70;;;;;;;10.61;100.00;101399.91;5016819;28;20072;-64
2021/10/15 06:03:37;;;;;;;39.08;19.98;;;;;;;10.58;100.00;101406.91;5021611;28;20112;-65
2021/10/15 06:14:22;;;;;;;39.28;20.35;;;;;;;10.60;100.00;101399.88;5019949;28;20508;-64
2021/10/15 06:16:53;;;;;;;39.88;22.27;;;;;;;10.63;100.00;101392.91;5020900;28;20018;-64
2021/10/15 06:19:21;;;;;;;42.88;21.70;;;;;;;10.66;100.00;101393.78;5020238;28;20021;-64
2021/10/15 06:21:47;;;;;;;40.20;21.58;;;;;;;10.68;100.00;101387.66;5019924;28;20436;-65
2021/10/15 06:24:13;;;;;;;42.13;21.85;;;;;;;10.71;100.00;101390.34;5018305;28;20532;-65
2021/10/15 06:26:38;;;;;;;42.97;23.20;;;;;;;10.73;100.00;101390.34;5020385;28;20017;-63
2021/10/15 06:29:04;;;;;;;42.83;23.90;;;;;;;10.77;100.00;101390.41;5022372;28;20083;-65
2021/10/15 06:31:29;;;;;;;44.85;23.83;;;;;;;10.81;100.00;101394.88;5020301;28;20462;-66
2021/10/15 06:33:55;;;;;;;42.78;24.38;;;;;;;10.88;100.00;101389.66;5022060;28;20056;-65
2021/10/15 06:36:20;;;;;;;42.17;23.27;;;;;;;10.87;100.00;101399.34;5023821;28;20697;-64
2021/10/15 06:38:46;;;;;;;43.53;23.48;;;;;;;10.89;100.00;101400.28;5020355;28;20413;-63
2021/10/15 06:41:11;;;;;;;46.72;24.95;;;;;;;10.91;100.00;101395.88;5023825;28;20026;-65
2021/10/15 06:43:37;;;;;;;47.03;25.38;;;;;;;10.94;100.00;101405.63;5021708;28;20018;-64
2021/10/15 06:46:03;;;;;;;44.28;25.40;;;;;;;10.94;100.00;101401.19;5023725;28;20061;-65
2021/10/15 06:48:28;;;;;;;45.95;26.23;;;;;;;10.98;100.00;101402.13;5020171;28;20030;-66
2021/10/15 06:50:54;;;;;;;48.20;27.33;;;;;;;10.98;100.00;101408.31;5025295;28;20028;-64
2021/10/15 06:53:19;;;;;;;52.90;28.50;;;;;;;11.07;100.00;101406.66;5021916;28;20086;-64
2021/10/15 06:55:44;;;;;;;49.70;27.63;;;;;;;11.16;100.00;101430.56;5022417;28;20449;-67
2021/10/15 06:58:10;;;;;;;46.35;26.98;;;;;;;11.21;100.00;101422.66;5024798;28;20400;-66
2021/10/15 07:00:35;;;;;;;48.50;27.30;;;;;;;11.21;100.00;101405.00;5021872;28;20026;-65
2021/10/15 07:03:00;;;;;;;50.72;28.25;;;;;;;11.24;100.00;101412.09;5023463;28;20112;-64
2021/10/15 07:05:26;;;;;;;49.10;28.55;;;;;;;11.26;100.00;101407.72;5023498;28;20037;-62
2021/10/15 07:07:52;;;;;;;49.08;28.10;;;;;;;11.31;100.00;101432.47;5022525;28;20022;-64
2021/10/15 07:10:18;;;;;;;50.45;28.02;;;;;;;11.32;100.00;101413.09;5021378;28;20381;-64
2021/10/15 07:12:44;;;;;;;48.78;28.38;;;;;;;11.39;100.00;101414.00;5022863;28;20034;-65
2021/10/15 07:15:13;;;;;;;51.50;29.77;;;;;;;11.38;100.00;101423.72;5018003;28;20026;-64
2021/10/15 07:17:39;;;;;;;48.05;29.48;;;;;;;11.40;100.00;101429.03;5021463;28;20040;-64
2021/10/15 07:20:06;;;;;;;51.67;29.17;;;;;;;11.43;100.00;101427.31;5019903;28;20059;-63
2021/10/15 07:22:31;;;;;;;51.50;28.98;;;;;;;11.46;100.00;101437.03;5024896;28;20384;-64
2021/10/15 07:24:57;;;;;;;51.80;29.30;;;;;;;11.48;100.00;101430.00;5023052;28;20022;-64
2021/10/15 07:27:22;;;;;;;50.35;29.05;;;;;;;11.52;100.00;101426.53;5019216;28;20038;-64
2021/10/15 07:29:48;;;;;;;50.15;28.42;;;;;;;11.48;100.00;101440.59;5025172;28;20095;-63
2021/10/15 07:32:13;;;;;;;48.63;28.08;;;;;;;11.44;100.00;101428.19;5019004;28;20144;-64
2021/10/15 07:34:39;;;;;;;51.58;29.45;;;;;;;11.43;100.00;101437.91;5017181;28;20022;-64
2021/10/15 07:37:04;;;;;;;53.10;29.23;;;;;;;11.41;100.00;101447.56;5021044;28;20043;-64
2021/10/15 07:39:30;;;;;;;50.88;29.88;;;;;;;11.38;100.00;101446.66;5017190;28;20064;-63
2021/10/15 07:41:56;;;;;;;54.13;32.08;;;;;;;11.27;100.00;101446.53;5022412;28;20025;-65
2021/10/15 07:44:21;;;;;;;58.13;32.78;;;;;;;11.16;100.00;101465.84;5016402;28;20358;-65
2021/10/15 07:46:47;;;;;;;61.70;34.58;;;;;;;11.04;100.00;101460.41;5018843;28;20477;-63
2021/10/15 07:49:12;;;;;;;68.43;38.95;;;;;;;11.02;100.00;101479.78;5020604;28;20034;-63
2021/10/15 07:51:37;;;;;;;67.60;37.40;;;;;;;10.96;100.00;101496.44;5017973;28;20073;-63
2021/10/15 07:54:03;;;;;;;66.78;37.50;;;;;;;10.98;100.00;101513.25;5021371;28;20077;-63
2021/10/15 07:56:32;;;;;;;70.97;38.67;;;;;;;10.96;100.00;101521.13;5018876;28;20080;-63
2021/10/15 07:58:57;;;;;;;73.32;40.65;;;;;;;10.91;100.00;101527.25;5018176;28;20108;-63
2021/10/15 08:01:23;;;;;;;74.60;42.55;;;;;;;10.94;100.00;101524.66;5019707;28;20457;-64
2021/10/15 08:03:48;;;;;;;72.90;42.83;;;;;;;10.89;100.00;101523.69;5019251;28;20487;-64
2021/10/15 08:06:13;;;;;;;62.72;38.63;;;;;;;10.94;100.00;101527.28;5017647;28;20441;-63
2021/10/15 08:08:39;;;;;;;53.30;32.80;;;;;;;10.95;100.00;101526.41;5017676;28;20026;-64
2021/10/15 08:11:04;;;;;;;52.78;32.40;;;;;;;10.98;100.00;101529.13;5022694;28;20014;-64
2021/10/15 08:13:30;;;;;;;50.40;30.17;;;;;;;11.06;100.00;101531.84;5019076;28;20030;-63
2021/10/15 08:15:57;;;;;;;50.85;32.25;;;;;;;11.02;100.00;101536.22;5017204;28;20021;-65
2021/10/15 08:18:23;;;;;;;43.28;25.73;;;;;;;11.02;100.00;101541.50;5017566;28;20030;-64
2021/10/15 08:20:54;;;;;;;41.30;23.27;;;;;;;11.06;100.00;101548.63;5020153;28;20032;-64
2021/10/15 08:23:20;;;;;;;43.22;25.17;;;;;;;10.99;100.00;101560.88;5023678;28;20024;-65
2021/10/15 08:25:46;;;;;;;35.80;18.58;;;;;;;10.95;100.00;101568.72;5018742;28;20034;-65
2021/10/15 08:28:12;;;;;;;27.42;11.57;;;;;;;10.94;100.00;101575.78;5021533;28;20032;-65
2021/10/15 08:30:37;;;;;;;27.55;10.60;;;;;;;10.86;100.00;101592.41;5022992;28;20026;-63
2021/10/15 08:33:02;;;;;;;17.42;4.30;;;;;;;10.79;100.00;101587.03;5019288;28;20033;-64
2021/10/15 08:35:28;;;;;;;17.55;3.42;;;;;;;10.74;100.00;101593.13;5012464;28;20034;-65
2021/10/15 08:37:53;;;;;;;18.45;3.55;;;;;;;10.71;100.00;101596.59;5010004;28;20080;-64
2021/10/15 08:40:19;;;;;;;15.07;2.75;;;;;;;10.62;100.00;101602.63;5012842;28;20050;-64
2021/10/15 08:42:51;;;;;;;15.40;2.70;;;;;;;10.62;100.00;101601.75;5012401;28;20080;-63
2021/10/15 08:45:21;;;;;;;14.57;3.03;;;;;;;10.59;100.00;101601.72;5017414;28;20025;-64
2021/10/15 08:47:47;;;;;;;14.98;2.75;;;;;;;10.56;100.00;101614.88;5021041;28;20045;-65
2021/10/15 08:50:12;;;;;;;17.58;2.70;;;;;;;10.62;100.00;101614.97;5023143;28;20496;-66
2021/10/15 08:52:38;;;;;;;15.48;2.78;;;;;;;10.67;100.00;101617.69;5025006;28;20038;-66
2021/10/15 08:55:03;;;;;;;15.77;2.95;;;;;;;10.77;100.00;101612.56;5020856;28;20121;-65
2021/10/15 08:57:28;;;;;;;16.85;2.70;;;;;;;10.88;100.00;101617.13;5027376;28;20045;-66
2021/10/15 09:00:13;;;;;;;17.52;2.70;;;;;;;10.95;100.00;101616.34;5023894;28;20054;-66
2021/10/15 09:02:39;;;;;;;16.77;3.10;;;;;;;11.10;100.00;101621.88;5024395;28;20030;-66
2021/10/15 09:05:04;;;;;;;18.65;2.83;;;;;;;11.22;100.00;101633.53;5022097;28;20416;-66
2021/10/15 09:07:30;;;;;;;17.38;2.97;;;;;;;11.22;100.00;101629.09;5023185;28;20060;-66
2021/10/15 09:10:18;;;;;;;13.38;2.60;;;;;;;11.28;100.00;101636.25;5020664;28;20022;-65
2021/10/15 09:12:47;;;;;;;17.67;2.90;;;;;;;11.32;100.00;101643.38;5024737;28;20026;-66
2021/10/15 09:15:13;;;;;;;20.02;2.88;;;;;;;11.36;100.00;101646.94;5022080;28;20096;-67
2021/10/15 09:17:52;;;;;;;14.93;2.90;;;;;;;11.46;100.00;101649.75;5025138;28;20034;-67
2021/10/15 09:20:34;;;;;;;19.85;2.85;;;;;;;11.48;100.00;101649.75;5024044;28;20055;-66
2021/10/15 09:23:03;;;;;;;20.42;3.30;;;;;;;11.52;100.00;101665.69;5022374;28;20056;-67
2021/10/15 09:25:37;;;;;;;20.95;3.20;;;;;;;11.48;100.00;101653.28;5021231;28;20443;-65
2021/10/15 09:28:15;;;;;;;19.88;3.00;;;;;;;11.49;100.00;101665.66;5022255;28;20026;-64
2021/10/15 09:30:43;;;;;;;16.92;2.80;;;;;;;11.42;100.00;101658.50;5020829;28;20036;-63
2021/10/15 09:33:09;;;;;;;19.70;3.03;;;;;;;11.42;100.00;101663.78;5018203;28;20026;-66
2021/10/15 09:35:35;;;;;;;20.15;3.13;;;;;;;11.58;100.00;101664.03;5018503;28;20033;-66
2021/10/15 09:38:05;;;;;;;19.00;3.25;;;;;;;11.67;100.00;101680.00;5019544;28;20030;-65
2021/10/15 09:40:48;;;;;;;16.77;3.10;;;;;;;11.76;100.00;101671.31;5021732;28;20048;-64
2021/10/15 09:43:14;;;;;;;19.45;3.33;;;;;;;11.90;100.00;101680.31;5017598;28;20455;-63
2021/10/15 09:45:45;;;;;;;24.73;3.78;;;;;;;11.86;100.00;101682.00;5020304;28;20551;-64
2021/10/15 09:48:20;;;;;;;21.75;3.50;;;;;;;11.97;100.00;101686.59;5021723;28;20444;-65
2021/10/15 09:50:47;;;;;;;20.85;3.70;;;;;;;11.95;100.00;101686.56;5017151;28;20032;-64
2021/10/15 09:53:13;;;;;;;18.92;3.55;;;;;;;12.04;100.00;101696.38;5022906;28;20018;-63
2021/10/15 09:55:43;;;;;;;20.10;3.60;;;;;;;12.25;100.00;101695.75;5021328;28;20092;-63
2021/10/15 09:58:27;;;;;;;20.33;3.80;;;;;;;12.40;100.00;101694.16;5020637;28;20040;-64
2021/10/15 10:00:54;;;;;;;20.08;3.70;;;;;;;12.40;100.00;101688.84;5016500;28;20018;-64
2021/10/15 10:03:23;;;;;;;20.02;3.53;;;;;;;12.47;100.00;101696.88;5020764;28;20149;-64
2021/10/15 10:05:49;;;;;;;21.58;3.50;;;;;;;12.64;97.67;101704.09;5019042;28;20381;-64
2021/10/15 10:08:15;;;;;;;20.88;3.60;;;;;;;12.69;95.89;101694.44;5005358;28;20121;-64
2021/10/15 10:10:41;;;;;;;18.92;3.03;;;;;;;12.71;94.05;101704.19;5023362;28;20491;-64
2021/10/15 10:13:09;;;;;;;19.17;3.30;;;;;;;12.97;95.55;101707.94;5022574;28;20058;-65
2021/10/15 10:15:37;;;;;;;21.63;3.40;;;;;;;13.47;91.28;101706.53;5021401;28;20365;-64
2021/10/15 10:18:17;;;;;;;17.55;3.53;;;;;;;14.01;88.80;101712.13;5023767;28;20423;-64
2021/10/15 10:21:05;;;;;;;17.13;3.00;;;;;;;14.18;84.30;101713.06;5022879;28;20515;-65
2021/10/15 10:23:39;;;;;;;22.85;3.70;;;;;;;13.98;84.09;101728.97;5023642;28;20135;-65
2021/10/15 10:26:09;;;;;;;20.33;3.40;;;;;;;14.12;84.04;101726.34;5025389;28;20507;-64
2021/10/15 10:28:35;;;;;;;18.92;3.20;;;;;;;14.39;81.70;101714.91;5023092;28;20033;-65
2021/10/15 10:31:06;;;;;;;21.08;3.35;;;;;;;14.89;79.14;101720.34;5011883;28;20029;-66
2021/10/15 10:33:51;;;;;;;20.95;3.28;;;;;;;15.21;77.57;101716.78;5020923;28;20044;-66
2021/10/15 10:36:16;;;;;;;20.88;3.28;;;;;;;14.95;78.22;101718.53;5019202;28;20025;-66
2021/10/15 10:38:42;;;;;;;20.17;3.30;;;;;;;14.95;78.37;101723.88;5020763;28;20484;-64
2021/10/15 10:41:07;;;;;;;21.77;3.80;;;;;;;15.31;77.71;101729.19;5017588;28;20124;-64
2021/10/15 10:43:42;;;;;;;19.98;3.40;;;;;;;15.35;75.15;101722.97;5019763;28;20403;-65
2021/10/15 10:46:08;;;;;;;18.80;3.30;;;;;;;15.90;71.52;101724.66;5018133;28;20110;-65
2021/10/15 10:48:33;;;;;;;21.45;3.58;;;;;;;16.31;68.38;101719.97;5019528;28;20385;-64
2021/10/15 10:51:25;;;;;;;20.80;3.55;;;;;;;17.33;67.46;101730.81;5000746;28;20184;-65
2021/10/15 10:54:09;;;;;;;19.75;3.30;;;;;;;17.49;63.23;101741.34;5019972;28;20065;-66
2021/10/15 10:56:37;;;;;;;18.90;3.10;;;;;;;17.12;63.75;101739.91;5017896;28;20115;-65
2021/10/15 10:59:31;;;;;;;21.42;3.30;;;;;;;17.00;66.25;101743.56;5022036;28;20087;-65
2021/10/15 11:02:04;;;;;;;20.38;3.45;;;;;;;17.58;62.70;101751.97;5014903;28;20034;-66
2021/10/15 11:04:38;;;;;;;20.55;3.20;;;;;;;19.39;55.20;101744.09;5023602;28;20048;-65
2021/10/15 11:07:09;;;;;;;21.63;3.53;;;;;;;19.94;55.64;101744.88;5022964;28;20079;-66
2021/10/15 11:09:40;;;;;;;20.88;3.85;;;;;;;21.22;51.17;101734.75;5026795;28;20033;-65
2021/10/15 11:12:11;;;;;;;19.15;3.05;;;;;;;23.30;45.93;101741.09;5025266;28;20045;-65
2021/10/15 11:14:58;;;;;;;19.77;3.33;;;;;;;23.63;47.34;101742.66;5017937;28;20033;-66
2021/10/15 11:17:35;;;;;;;18.48;3.20;;;;;;;22.46;46.79;101747.44;5021991;28;20036;-65
2021/10/15 11:20:16;;;;;;;19.95;3.25;;;;;;;21.79;48.65;101753.00;5025324;28;20443;-65
2021/10/15 11:22:56;;;;;;;19.60;3.25;;;;;;;19.94;48.33;101750.25;5023967;28;20126;-64